createdAt,value
2019-04-11T00:02:27.491Z,99.90
2019-04-11T00:07:32.130Z,99.90
2019-04-11T00:12:36.901Z,99.90
2019-04-11T00:22:47.827Z,99.90
2019-04-11T00:27:53.141Z,99.90
2019-04-11T00:32:58.067Z,99.90
2019-04-11T00:38:03.153Z,99.90
2019-04-11T00:43:07.774Z,99.90
2019-04-11T00:53:16.331Z,99.90
2019-04-11T00:58:21.338Z,99.90
2019-04-11T01:03:26.405Z,99.90
2019-04-11T01:08:31.519Z,99.90
2019-04-11T01:13:44.708Z,99.90
2019-04-11T01:18:44.386Z,99.90
2019-04-11T01:28:53.765Z,99.90
2019-04-11T01:33:58.606Z,99.90
2019-04-11T01:39:10.623Z,99.90
2019-04-11T01:44:16.519Z,99.90
2019-04-11T01:49:22.553Z,99.90
2019-04-11T01:54:28.099Z,99.90
2019-04-11T01:59:33.282Z,99.90
2019-04-11T02:04:43.945Z,99.90
2019-04-11T02:09:48.693Z,99.90
2019-04-11T02:14:53.411Z,99.90
2019-04-11T02:19:58.701Z,99.90
2019-04-11T02:25:21.331Z,99.90
2019-04-11T02:30:27.711Z,99.90
2019-04-11T02:40:38.666Z,99.90
2019-04-11T02:45:55.498Z,99.90
2019-04-11T02:50:50.892Z,99.90
2019-04-11T02:55:56.589Z,99.90
2019-04-11T03:01:05.198Z,99.90
2019-04-11T03:06:09.685Z,99.90
2019-04-11T03:11:16.760Z,99.90
2019-04-11T03:16:36.834Z,99.90
2019-04-11T03:21:30.829Z,99.90
2019-04-11T03:26:35.485Z,99.90
2019-04-11T03:37:22.283Z,99.90
2019-04-11T03:42:11.077Z,99.90
2019-04-11T03:47:16.699Z,99.90
2019-04-11T03:57:13.435Z,99.90
2019-04-11T04:02:20.248Z,99.90
2019-04-11T04:07:27.692Z,99.90
2019-04-11T04:12:33.660Z,99.90
2019-04-11T04:17:59.546Z,99.90
2019-04-11T04:23:12.394Z,99.90
2019-04-11T04:28:19.116Z,99.90
2019-04-11T04:33:23.872Z,99.90
2019-04-11T04:43:36.361Z,99.90
2019-04-11T04:48:42.532Z,99.90
2019-04-11T04:53:48.130Z,99.90
2019-04-11T04:58:54.050Z,99.90
2019-04-11T05:03:59.104Z,99.90
2019-04-11T05:09:06.533Z,99.90
2019-04-11T05:14:12.437Z,99.90
2019-04-11T05:19:17.222Z,99.90
2019-04-11T05:24:22.898Z,99.90
2019-04-11T05:29:29.161Z,99.90
2019-04-11T05:34:35.204Z,99.90
2019-04-11T05:39:41.370Z,99.90
2019-04-11T05:44:47.094Z,99.90
2019-04-11T05:50:13.757Z,99.90
2019-04-11T05:55:19.495Z,99.90
2019-04-11T06:00:53.290Z,99.90
2019-04-11T06:06:16.373Z,99.90
2019-04-11T06:11:40.966Z,99.90
2019-04-11T06:16:52.595Z,99.90
2019-04-11T06:22:00.177Z,99.90
2019-04-11T06:27:13.747Z,99.90
2019-04-11T06:32:46.102Z,99.90
2019-04-11T06:38:22.672Z,99.90
2019-04-11T06:43:43.016Z,99.90
2019-04-11T06:48:58.095Z,99.90
2019-04-11T06:54:37.257Z,99.90
2019-04-11T06:59:44.936Z,99.90
2019-04-11T07:04:52.172Z,99.90
2019-04-11T07:10:02.118Z,99.90
2019-04-11T07:15:18.719Z,99.90
2019-04-11T07:20:43.555Z,99.90
2019-04-11T07:26:10.859Z,99.90
2019-04-11T07:31:33.876Z,99.90
2019-04-11T07:37:10.450Z,99.90
2019-04-11T07:42:40.974Z,99.90
2019-04-11T07:47:52.581Z,99.90
2019-04-11T07:53:01.416Z,99.60
2019-04-11T07:58:28.600Z,98.90
2019-04-11T08:03:46.967Z,96.60
2019-04-11T08:09:13.181Z,98.40
2019-04-11T08:14:37.041Z,96.20
2019-04-11T08:19:59.879Z,94.70
2019-04-11T08:25:25.046Z,96.70
2019-04-11T08:30:35.493Z,95.90
2019-04-11T08:36:11.515Z,95.00
2019-04-11T08:41:44.438Z,96.00
2019-04-11T08:46:54.143Z,95.60
2019-04-11T08:52:00.834Z,95.20
2019-04-11T08:57:07.615Z,94.50
2019-04-11T09:02:37.980Z,93.70
2019-04-11T09:07:52.131Z,89.70
2019-04-11T09:13:07.139Z,89.70
2019-04-11T09:18:14.908Z,91.90
2019-04-11T09:23:22.357Z,90.70
2019-04-11T09:28:34.171Z,92.20
2019-04-11T09:34:03.741Z,91.20
2019-04-11T09:39:17.496Z,91.90
2019-04-11T09:44:28.868Z,90.70
2019-04-11T09:49:42.966Z,90.30
2019-04-11T09:55:07.080Z,87.80
2019-04-11T10:00:34.741Z,81.30
2019-04-11T10:05:51.529Z,85.30
2019-04-11T10:11:21.998Z,86.10
2019-04-11T10:16:46.537Z,86.20
2019-04-11T10:21:56.821Z,81.30
2019-04-11T10:27:08.794Z,73.00
2019-04-11T10:32:15.018Z,76.80
2019-04-11T10:37:20.873Z,77.30
2019-04-11T10:42:26.612Z,79.80
2019-04-11T10:47:33.284Z,85.20
2019-04-11T10:52:42.444Z,80.10
2019-04-11T10:58:08.820Z,82.20
2019-04-11T11:03:22.250Z,79.00
2019-04-11T11:08:33.325Z,79.20
2019-04-11T11:14:04.556Z,69.30
2019-04-11T11:19:50.243Z,73.70
2019-04-11T11:25:12.691Z,77.60
2019-04-11T11:30:33.642Z,77.30
2019-04-11T11:36:09.988Z,74.80
2019-04-11T11:41:43.376Z,73.90
2019-04-11T11:47:15.850Z,70.70
2019-04-11T11:52:35.009Z,69.50
2019-04-11T11:57:47.218Z,74.40
2019-04-11T12:03:02.370Z,76.70
2019-04-11T12:08:18.188Z,72.50
2019-04-11T12:13:41.134Z,76.20
2019-04-11T12:18:55.104Z,69.70
2019-04-11T12:24:22.982Z,65.30
2019-04-11T12:29:46.834Z,64.10
2019-04-11T12:35:02.240Z,74.40
2019-04-11T12:40:24.939Z,69.60
2019-04-11T12:45:50.905Z,71.80
2019-04-11T12:51:20.677Z,68.50
2019-04-11T12:56:54.365Z,73.60
2019-04-11T13:02:31.275Z,77.50
2019-04-11T13:08:12.826Z,69.30
2019-04-11T13:13:43.015Z,72.20
2019-04-11T13:19:00.219Z,75.10
2019-04-11T13:24:29.696Z,77.20
2019-04-11T13:29:59.769Z,75.40
2019-04-11T13:35:10.859Z,80.70
2019-04-11T13:40:37.963Z,71.90
2019-04-11T13:46:04.963Z,75.70
2019-04-11T13:51:17.277Z,74.50
2019-04-11T13:56:27.936Z,74.20
2019-04-11T14:01:34.982Z,73.60
2019-04-11T14:06:55.501Z,69.70
2019-04-11T14:12:04.896Z,73.30
2019-04-11T14:17:29.815Z,75.20
2019-04-11T14:22:58.296Z,76.00
2019-04-11T14:28:03.574Z,70.10
2019-04-11T14:33:08.398Z,79.30
2019-04-11T14:38:15.277Z,74.10
2019-04-11T14:43:31.271Z,73.20
2019-04-11T14:48:47.689Z,71.20
2019-04-11T14:54:05.227Z,80.10
2019-04-11T14:59:38.064Z,79.70
2019-04-11T15:05:00.356Z,77.90
2019-04-11T15:10:40.422Z,78.60
2019-04-11T15:21:32.370Z,80.60
2019-04-11T15:27:02.671Z,82.80
2019-04-11T15:32:26.958Z,80.40
2019-04-11T15:37:47.422Z,81.20
2019-04-11T15:48:38.196Z,85.20
2019-04-11T15:53:56.190Z,84.90
2019-04-11T15:59:12.931Z,82.80
2019-04-11T16:04:36.907Z,85.70
2019-04-11T16:09:42.266Z,86.60
2019-04-11T16:14:47.971Z,87.00
2019-04-11T16:19:54.942Z,84.70
2019-04-11T16:25:02.756Z,83.70
2019-04-11T16:30:11.774Z,86.80
2019-04-11T16:35:23.828Z,87.00
2019-04-11T16:46:25.575Z,88.90
2019-04-11T16:51:31.295Z,88.30
2019-04-11T16:56:36.056Z,90.60
2019-04-11T17:01:40.568Z,90.70
2019-04-11T17:07:01.723Z,90.20
2019-04-11T17:12:06.510Z,91.00
2019-04-11T17:22:18.933Z,91.20
2019-04-11T17:27:23.303Z,90.20
2019-04-11T17:32:28.736Z,91.50
2019-04-11T17:37:33.789Z,91.50
2019-04-11T17:42:38.410Z,91.70
2019-04-11T17:47:44.818Z,92.00
2019-04-11T17:57:54.894Z,92.30
2019-04-11T18:03:03.679Z,92.60
2019-04-11T18:08:09.883Z,92.50
2019-04-11T18:13:19.748Z,92.40
2019-04-11T18:18:35.798Z,91.80
2019-04-11T18:23:40.851Z,92.40
2019-04-11T18:28:45.793Z,92.10
2019-04-11T18:33:51.164Z,94.00
2019-04-11T18:38:55.853Z,93.60
2019-04-11T18:44:01.388Z,91.70
2019-04-11T18:49:06.238Z,93.00
2019-04-11T18:54:11.818Z,94.40
2019-04-11T19:04:31.804Z,92.90
2019-04-11T19:09:32.426Z,92.80
2019-04-11T19:14:37.266Z,95.10
2019-04-11T19:19:48.636Z,93.50
2019-04-11T19:24:52.210Z,94.30
2019-04-11T19:29:57.438Z,94.30
2019-04-11T19:40:09.958Z,95.40
2019-04-11T19:45:14.301Z,95.50
2019-04-11T19:50:19.904Z,94.30
2019-04-11T19:55:37.916Z,95.50
2019-04-11T20:00:42.658Z,94.30
2019-04-11T20:05:50.384Z,95.10
2019-04-11T20:10:55.333Z,94.80
2019-04-11T20:16:12.226Z,94.70
2019-04-11T20:21:15.564Z,94.70
2019-04-11T20:26:21.158Z,95.30
2019-04-11T20:31:26.302Z,95.10
2019-04-11T20:36:33.570Z,95.40
2019-04-11T20:41:38.800Z,95.10
2019-04-11T20:46:43.738Z,95.00
2019-04-11T20:51:48.300Z,95.60
2019-04-11T20:56:53.456Z,95.60
2019-04-11T21:01:58.487Z,95.10
2019-04-11T21:07:04.513Z,94.90
2019-04-11T21:12:09.169Z,95.40
2019-04-11T21:17:14.822Z,94.90
2019-04-11T21:22:23.940Z,95.20
2019-04-11T21:27:28.982Z,95.40
2019-04-11T21:32:33.719Z,95.60
2019-04-11T21:42:42.651Z,94.80
2019-04-11T21:47:47.555Z,94.90
2019-04-11T21:52:52.071Z,96.30
2019-04-11T21:57:56.774Z,95.70
2019-04-11T22:03:01.626Z,96.20
2019-04-11T22:08:06.608Z,96.00
2019-04-11T22:13:11.266Z,97.50
2019-04-11T22:18:17.026Z,96.70
2019-04-11T22:23:21.855Z,97.30
2019-04-11T22:33:38.306Z,97.50
2019-04-11T22:38:43.033Z,97.90
2019-04-11T22:43:48.415Z,97.50
2019-04-11T22:48:53.123Z,97.10
2019-04-11T22:54:00.548Z,96.90
2019-04-11T22:59:05.030Z,97.10
2019-04-11T23:04:10.253Z,97.20
2019-04-11T23:09:16.598Z,97.80
2019-04-11T23:14:21.197Z,97.30
2019-04-11T23:19:25.782Z,98.20
2019-04-11T23:24:30.282Z,97.60
2019-04-11T23:29:34.825Z,97.80
2019-04-11T23:34:39.361Z,98.20
2019-04-11T23:39:43.898Z,96.80
2019-04-11T23:44:50.491Z,97.00
2019-04-11T23:49:56.072Z,97.80
2019-04-11T23:55:01.070Z,98.30
